Metaline Falls, Washington
Current Conditions -  °F | °C
As of 8:15 PM on Thursday 20 Nov 2014 (Local Time) from K65S Reporting Station
Overcast Overcast  
Wind Chill: 28°   Ceiling: 600
Heat Index: 28°   Visibility: 10mi
Dew Point: 27°   Wind: 0mph
Humidity: 93%   Direction: NA
Pressure: 29.99"   Gusts: NA
Location:  48.86°N, 117.37°W
Report Text: K65S 210415Z AUTO 00000KT 10SM OVC006 M02/M03 A2999 RMK AO2
Loading
Personal Weather Stations






























Interactive Weather Map New forecast layout! Learn more

10-Day Weather Forecast

Advertisements
Track Severe Weather on mobile